Flight Track Log - Related Links

Times and Time Zones

All times are in EDT time to prevent confusion due to time zone crossing. See the LAK583 flight status page for this flight to view local times or setup timezone preferences in your user account.

Time Position Orientation Groundspeed Altitude Reporting Facility
EDT Latitude Longitude Course Direction KTS MPH feet Rate Location/Type
Mon 12:30:53 PM 36.1231 -95.9503 226° Southwest 236 272 4,400  Level Kansas City Center
Mon 12:31:20 PM 36.1189 -95.9806 260° West 246 283 5,400 3,000 Climbing Kansas City Center
Mon 12:31:53 PM 36.1136 -96.0394 264° West 254 292 7,400 2,557 Climbing Kansas City Center
Mon 12:32:21 PM 36.1119 -96.0650 265° West 245 282 8,000 2,110 Climbing Kansas City Center
Mon 12:33:24 PM 36.1092 -96.1514 268° West 249 287 10,600 2,537 Climbing Kansas City Center
Mon 12:34:24 PM 36.1036 -96.2364 265° West 249 287 13,200 2,419 Climbing Kansas City Center
Mon 12:35:00 PM 36.0868 -96.5530 253° West  Level FlightAware Approximate
Mon 12:35:28 PM 36.0983 -96.3350 266° West 242 278 15,600  Level Kansas City Center
Mon 12:36:29 PM 36.0917 -96.4175 264° West 241 277 17,400 1,597 Climbing Kansas City Center
Mon 12:37:32 PM 36.0867 -96.5044 266° West 248 285 18,900 1,610 Climbing Kansas City Center
Mon 12:38:32 PM 36.0814 -96.5953 266° West 259 298 20,700 1,680 Climbing Kansas City Center
Mon 12:39:37 PM 36.0758 -96.6853 266° West 262 302 22,400 1,488 Climbing Kansas City Center
Mon 12:40:37 PM 36.0639 -96.7828 261° West 267 307 23,800 1,339 Climbing Kansas City Center
Mon 12:41:38 PM 36.0503 -96.8761 260° West 274 315 25,100 1,344 Climbing Kansas City Center
Mon 12:42:42 PM 36.0392 -96.9706 262° West 278 320 26,600 1,296 Climbing Kansas City Center
Mon 12:43:43 PM 36.0272 -97.0639 261° West 278 320 27,800 1,279 Climbing Kansas City Center
Mon 12:44:44 PM 36.0117 -97.1778 260° West 281 323 29,200 1,344 Climbing Kansas City Center
Mon 12:45:48 PM 36.0011 -97.2719 262° West 279 321 30,600 1,200 Climbing Kansas City Center
Mon 12:46:49 PM 35.9883 -97.3628 260° West 274 315 31,700 968 Climbing Kansas City Center
Mon 12:47:52 PM 35.9761 -97.4569 261° West 277 319 32,600 871 Climbing Kansas City Center
Mon 12:48:53 PM 35.9644 -97.5492 261° West 275 316 33,500 976 Climbing Kansas City Center
Mon 12:49:55 PM 35.9494 -97.6589 260° West 272 313 34,600 829 Climbing Kansas City Center
Mon 12:50:56 PM 35.9364 -97.7511 260° West 273 314 35,200 720 Climbing Kansas City Center
Mon 12:52:00 PM 35.9242 -97.8428 261° West 272 313 36,100 919 Climbing Kansas City Center
Mon 12:53:00 PM 35.9117 -97.9322 260° West 269 310 37,100 871 Climbing Kansas City Center
Mon 12:54:04 PM 35.8992 -98.0206 260° West 264 304 37,900 720 Climbing Kansas City Center
Mon 12:55:05 PM 35.8869 -98.1117 261° West 256 295 38,600 532 Climbing Kansas City Center
Mon 12:56:08 PM 35.8750 -98.1969 260° West 252 290 39,000 440 Climbing Kansas City Center
Mon 12:56:54 PM 35.8642 -98.2714 260° West 264 304 39,400 509 Climbing Fort Worth Center
Mon 12:57:54 PM 35.8531 -98.3558 261° West 259 298 39,900 300 Climbing Fort Worth Center
Mon 12:58:54 PM 35.8397 -98.4453 260° West 259 298 40,000 50 Climbing Fort Worth Center
Mon 12:59:54 PM 35.8264 -98.5397 260° West 264 304 40,000  Level Fort Worth Center
Mon 01:00:54 PM 35.8131 -98.6394 261° West 285 328 40,000  Level Fort Worth Center
Mon 01:01:54 PM 35.7975 -98.7392 259° West 293 337 40,000  Level Fort Worth Center
Mon 01:02:54 PM 35.7839 -98.8411 261° West 304 350 40,000  Level Fort Worth Center
Mon 01:03:54 PM 35.7681 -98.9458 259° West 309 356 40,000  Level Fort Worth Center
Mon 01:04:54 PM 35.7542 -99.0531 261° West 314 361 40,000  Level Fort Worth Center
Mon 01:05:54 PM 35.7358 -99.1703 259° West 319 367 40,000  Level Fort Worth Center
Mon 01:06:54 PM 35.7175 -99.2772 258° West 319 367 40,000  Level Fort Worth Center
Mon 01:07:54 PM 35.7033 -99.3817 261° West 319 367 40,000 205 Level Fort Worth Center
Mon 01:10:19 PM 35.6672 -99.6336 260° West 311 358 40,700 290 Climbing Albuquerque Center
Mon 01:11:21 PM 35.6514 -99.7353 259° West 303 349 41,000 145 Climbing Albuquerque Center
Mon 01:12:23 PM 35.6364 -99.8403 260° West 307 353 41,000  Level Albuquerque Center
Mon 01:13:25 PM 35.6197 -99.9453 259° West 311 358 41,000  Level Albuquerque Center
Mon 01:14:27 PM 35.6028 -100.0531 259° West 317 365 41,000  Level Albuquerque Center
Mon 01:15:29 PM 35.5856 -100.1617 259° West 320 368 41,000  Level Albuquerque Center
Mon 01:16:31 PM 35.5650 -100.2931 259° West 324 373 41,000  Level Albuquerque Center
Mon 01:17:33 PM 35.5464 -100.4025 258° West 326 375 41,000  Level Albuquerque Center
Mon 01:18:35 PM 35.5297 -100.5139 260° West 328 377 41,000  Level Albuquerque Center
Mon 01:19:37 PM 35.5111 -100.6256 258° West 330 380 41,000 -339 Level Albuquerque Center
Mon 01:20:39 PM 35.4919 -100.7406 258° West 336 387 40,300 -480 Descending Albuquerque Center
Mon 01:21:42 PM 35.4719 -100.8606 258° West 349 402 40,000 -144 Descending Albuquerque Center
Mon 01:22:44 PM 35.4536 -100.9764 259° West 351 404 40,000  Level Albuquerque Center
Mon 01:23:46 PM 35.4303 -101.1147 258° West 348 400 40,000  Level Albuquerque Center
Mon 01:24:48 PM 35.4117 -101.2269 259° West 343 395 40,000  Level Albuquerque Center
Mon 01:25:50 PM 35.3944 -101.3447 260° West 346 398 40,000  Level Albuquerque Center
Mon 01:26:52 PM 35.3786 -101.4600 260° West 344 396 40,000  Level Albuquerque Center
Mon 01:27:54 PM 35.3592 -101.5753 258° West 344 396 40,000  Level Albuquerque Center
Mon 01:28:56 PM 35.3400 -101.6908 259° West 343 395 40,000  Level Albuquerque Center
Mon 01:29:58 PM 35.3150 -101.8250 257° West 343 395 40,000  Level Albuquerque Center
Mon 01:31:00 PM 35.2972 -101.9403 259° West 342 394 40,000  Level Albuquerque Center
Mon 01:32:02 PM 35.2725 -102.0406 253° West 348 400 40,000  Level Albuquerque Center
Mon 01:33:04 PM 35.2500 -102.1731 258° West 336 387 40,000  Level Albuquerque Center
Mon 01:34:06 PM 35.2306 -102.2828 258° West 332 382 40,000  Level Albuquerque Center
Mon 01:35:08 PM 35.2114 -102.3928 258° West 332 382 40,000  Level Albuquerque Center
Mon 01:36:10 PM 35.1919 -102.5019 258° West 331 381 40,000  Level Albuquerque Center
Mon 01:37:12 PM 35.1733 -102.6119 258° West 330 380 40,000  Level Albuquerque Center
Mon 01:38:14 PM 35.1539 -102.7183 257° West 325 374 40,000  Level Albuquerque Center
Mon 01:39:16 PM 35.1303 -102.8469 257° West 323 372 40,000  Level Albuquerque Center
Mon 01:40:18 PM 35.1119 -102.9556 258° West 326 375 40,000  Level Albuquerque Center
Mon 01:41:20 PM 35.0928 -103.0628 258° West 325 374 40,000  Level Albuquerque Center
Mon 01:42:22 PM 35.0714 -103.1697 256° West 323 372 40,000  Level Albuquerque Center
Mon 01:43:24 PM 35.0522 -103.2783 258° West 324 373 40,000  Level Albuquerque Center
Mon 01:44:26 PM 35.0322 -103.3861 257° West 324 373 40,000  Level Albuquerque Center
Mon 01:45:28 PM 35.0081 -103.5111 257° West 322 371 40,000  Level Albuquerque Center
Mon 01:46:30 PM 34.9886 -103.6183 258° West 320 368 40,000  Level Albuquerque Center
Mon 01:47:32 PM 34.9689 -103.7250 257° West 319 367 40,000  Level Albuquerque Center
Mon 01:48:34 PM 34.9483 -103.8317 257° West 319 367 40,000  Level Albuquerque Center
Mon 01:49:36 PM 34.9272 -103.9378 256° West 319 367 40,000  Level Albuquerque Center
Mon 01:51:00 PM 34.8964 -104.0836 256° West  Level FlightAware Approximate
Mon 01:51:41 PM 34.8858 -104.1536 256° West 322 371 40,000  Level Albuquerque Center
Mon 01:52:43 PM 34.8639 -104.2614 256° West 323 372 40,000  Level Albuquerque Center
Mon 01:53:45 PM 34.8436 -104.3689 257° West 323 372 40,000  Level Albuquerque Center
Mon 01:54:47 PM 34.8194 -104.4925 257° West 319 367 40,000  Level Albuquerque Center
Mon 01:55:49 PM 34.7986 -104.6003 257° West 322 371 40,000  Level Albuquerque Center
Mon 01:56:51 PM 34.7769 -104.7094 256° West 326 375 40,000  Level Albuquerque Center
Mon 01:57:53 PM 34.7594 -104.8161 259° West 322 371 40,000  Level Albuquerque Center
Mon 01:58:55 PM 34.7433 -104.9253 260° West 323 372 40,000  Level Albuquerque Center
Mon 01:59:57 PM 34.7267 -105.0336 259° West 323 372 40,000  Level Albuquerque Center
Mon 02:00:59 PM 34.7094 -105.1414 259° West 321 369 40,000  Level Albuquerque Center
Mon 02:02:01 PM 34.6903 -105.2681 260° West 322 371 40,000  Level Albuquerque Center
Mon 02:03:03 PM 34.6736 -105.3761 259° West 322 371 40,000  Level Albuquerque Center
Mon 02:04:05 PM 34.6556 -105.4831 258° West 321 369 40,000  Level Albuquerque Center
Mon 02:05:07 PM 34.6381 -105.5931 259° West 326 375 40,000  Level Albuquerque Center
Mon 02:06:09 PM 34.6203 -105.7017 259° West 325 374 40,000  Level Albuquerque Center
Mon 02:07:11 PM 34.6022 -105.8119 259° West 328 377 40,000  Level Albuquerque Center
Mon 02:08:13 PM 34.5839 -105.9219 259° West 330 380 40,000  Level Albuquerque Center
Mon 02:09:15 PM 34.5656 -106.0311 259° West 328 377 40,000  Level Albuquerque Center
Mon 02:10:17 PM 34.5456 -106.1594 259° West 329 379 40,000  Level Albuquerque Center
Mon 02:11:19 PM 34.5267 -106.2689 258° West 329 379 40,000  Level Albuquerque Center
Mon 02:12:21 PM 34.5081 -106.3772 258° West 329 379 40,000  Level Albuquerque Center
Mon 02:13:23 PM 34.4889 -106.4853 258° West 328 377 40,000  Level Albuquerque Center
Mon 02:14:24 PM 34.4714 -106.5922 259° West 325 374 40,000  Level Albuquerque Center
Mon 02:15:26 PM 34.4536 -106.7003 259° West 325 374 40,000  Level Albuquerque Center
Mon 02:16:28 PM 34.4342 -106.8100 258° West 330 380 40,000  Level Albuquerque Center
Mon 02:17:30 PM 34.4158 -106.9222 259° West 337 388 40,000  Level Albuquerque Center
Mon 02:18:32 PM 34.3967 -107.0306 258° West 331 381 40,000  Level Albuquerque Center
Mon 02:19:33 PM 34.3750 -107.1594 259° West 327 376 40,000  Level Albuquerque Center
Mon 02:20:35 PM 34.3564 -107.2664 258° West 326 375 40,000  Level Albuquerque Center
Mon 02:21:37 PM 34.3369 -107.3758 258° West 329 379 40,000  Level Albuquerque Center
Mon 02:22:39 PM 34.3183 -107.4844 258° West 330 380 40,000  Level Albuquerque Center
Mon 02:23:40 PM 34.2989 -107.5842 257° West 329 379 40,000  Level Albuquerque Center
Mon 02:24:42 PM 34.2753 -107.7119 257° West 327 376 40,000  Level Albuquerque Center
Mon 02:25:44 PM 34.2553 -107.8214 258° West 332 382 40,000  Level Albuquerque Center
Mon 02:26:46 PM 34.2361 -107.9289 258° West 330 380 40,000  Level Albuquerque Center
Mon 02:27:47 PM 34.2161 -108.0375 257° West 331 381 40,000  Level Albuquerque Center
Mon 02:28:49 PM 34.1956 -108.1556 258° West 332 382 40,000  Level Albuquerque Center
Mon 02:29:51 PM 34.1761 -108.2633 258° West 333 383 40,000  Level Albuquerque Center
Mon 02:30:52 PM 34.1558 -108.3719 257° West 334 384 40,000  Level Albuquerque Center
Mon 02:31:54 PM 34.1358 -108.4781 257° West 330 380 40,000  Level Albuquerque Center
Mon 02:32:56 PM 34.1114 -108.6094 257° West 336 387 40,000  Level Albuquerque Center
Mon 02:33:58 PM 34.0911 -108.7183 257° West 336 387 40,000  Level Albuquerque Center
Mon 02:34:59 PM 34.0714 -108.8281 258° West 337 388 40,000  Level Albuquerque Center
Mon 02:36:01 PM 34.0519 -108.9358 258° West 336 387 40,000  Level Albuquerque Center
Mon 02:37:03 PM 34.0308 -109.0417 256° West 332 382 40,000  Level Albuquerque Center
Mon 02:38:04 PM 34.0106 -109.1489 257° West 332 382 40,000  Level Albuquerque Center
Mon 02:39:06 PM 33.9850 -109.2786 257° West 335 386 40,000  Level Albuquerque Center
Mon 02:40:08 PM 33.9647 -109.3864 257° West 334 384 40,000  Level Albuquerque Center
Mon 02:41:10 PM 33.9439 -109.4922 257° West 332 382 40,000  Level Albuquerque Center
Mon 02:42:11 PM 33.9228 -109.6003 257° West 334 384 40,000  Level Albuquerque Center
Mon 02:43:13 PM 33.9017 -109.7061 257° West 332 382 40,000  Level Albuquerque Center
Mon 02:44:15 PM 33.8767 -109.8356 257° West 333 383 40,000  Level Albuquerque Center
Mon 02:45:17 PM 33.8556 -109.9433 257° West 334 384 40,000  Level Albuquerque Center
Mon 02:46:18 PM 33.8289 -110.0486 253° West 335 386 40,000  Level Albuquerque Center
Mon 02:47:20 PM 33.7867 -110.1594 245° Southwest 365 420 40,000  Level Albuquerque Center
Mon 02:48:22 PM 33.7536 -110.2636 249° West 348 400 40,000  Level Albuquerque Center
Mon 02:49:24 PM 33.7150 -110.3903 250° West 345 397 40,000  Level Albuquerque Center
Mon 02:50:26 PM 33.6825 -110.4958 250° West 341 392 40,000  Level Albuquerque Center
Mon 02:51:28 PM 33.6503 -110.6011 250° West 339 390 40,000  Level Albuquerque Center
Mon 02:52:29 PM 33.6150 -110.7069 248° West 338 389 40,000  Level Albuquerque Center
Mon 02:53:31 PM 33.5806 -110.8125 249° West 339 390 40,000  Level Albuquerque Center
Mon 02:54:33 PM 33.5472 -110.9183 249° West 339 390 40,000  Level Albuquerque Center
Mon 02:55:35 PM 33.5058 -111.0475 249° West 346 398 40,000  Level Albuquerque Center
Mon 02:56:37 PM 33.4703 -111.1531 248° West 343 395 40,000  Level Albuquerque Center
Mon 02:57:39 PM 33.4347 -111.2589 248° West 342 394 40,000  Level Albuquerque Center
Mon 02:58:41 PM 33.3978 -111.3653 247° West 346 398 40,000  Level Albuquerque Center
Mon 02:59:43 PM 33.3389 -111.4594 233° Southwest 351 404 40,000  Level Albuquerque Center
Mon 03:00:44 PM 33.2772 -111.5511 231° Southwest 353 406 40,000  Level Albuquerque Center
Mon 03:01:46 PM 33.2156 -111.6433 231° Southwest 355 409 40,000  Level Albuquerque Center
Mon 03:02:48 PM 33.1417 -111.7544 232° Southwest 354 407 40,000  Level Albuquerque Center
Mon 03:03:50 PM 33.0806 -111.8453 231° Southwest 351 404 40,000  Level Albuquerque Center
Mon 03:04:52 PM 33.0189 -111.9372 231° Southwest 354 407 40,000  Level Albuquerque Center
Mon 03:05:54 PM 32.9575 -112.0300 232° Southwest 355 409 40,000  Level Albuquerque Center
Mon 03:06:56 PM 32.8983 -112.1217 232° Southwest 350 403 40,000  Level Albuquerque Center
Mon 03:07:58 PM 32.8450 -112.2197 237° Southwest 350 403 40,000  Level Albuquerque Center
Mon 03:09:00 PM 32.8289 -112.3328 260° West 338 389 40,000  Level Albuquerque Center
Mon 03:10:02 PM 32.8619 -112.4619 287° West 340 391 40,000  Level Albuquerque Center
Mon 03:11:04 PM 32.9069 -112.5633 298° West 347 399 40,000  Level Albuquerque Center
Mon 03:12:06 PM 32.9433 -112.6703 292° West 350 403 40,000  Level Albuquerque Center
Mon 03:13:07 PM 32.9425 -112.7833 270° West 349 402 40,000 -49 Level Albuquerque Center
Mon 03:14:09 PM 32.9267 -112.8956 260° West 348 400 39,900 -726 Descending Albuquerque Center
Mon 03:15:11 PM 32.9067 -113.0372 260° West 360 414 38,500 -1,161 Descending Albuquerque Center
Mon 03:16:13 PM 32.8894 -113.1614 261° West 376 433 37,500 -919 Descending Albuquerque Center
Mon 03:17:15 PM 32.8717 -113.2844 260° West 381 438 36,600 -919 Descending Albuquerque Center
Mon 03:18:17 PM 32.8558 -113.4036 261° West 373 429 35,600 -968 Descending Albuquerque Center
Mon 03:19:19 PM 32.8394 -113.5219 261° West 368 423 34,600 -774 Descending Albuquerque Center
Mon 03:20:21 PM 32.8219 -113.6425 260° West 371 427 34,000 -290 Descending Albuquerque Center
Mon 03:21:23 PM 32.8011 -113.7858 260° West 369 425 34,000  Level Albuquerque Center
Mon 03:22:25 PM 32.7839 -113.9072 260° West 373 429 34,000 -452 Level Albuquerque Center
Mon 03:24:29 PM 32.7719 -114.1539 267° West 377 434 32,600 -935 Descending Albuquerque Center
Mon 03:25:31 PM 32.7742 -114.2808 271° West 384 442 31,100 -1,403 Descending Albuquerque Center
Mon 03:26:33 PM 32.7692 -114.4067 267° West 384 442 29,700 -1,440 Descending Albuquerque Center
Mon 03:27:36 PM 32.7675 -114.5514 269° West 387 445 28,100 -816 Descending Los Angeles Center
Mon 03:28:38 PM 32.7650 -114.6769 269° West 381 438 28,000 -528 Descending Los Angeles Center
Mon 03:29:41 PM 32.7619 -114.8292 269° West 386 444 27,000 -1,152 Descending Los Angeles Center
Mon 03:30:43 PM 32.7581 -114.9594 268° West 394 453 25,600 -1,258 Descending Los Angeles Center
Mon 03:31:45 PM 32.7586 -115.0775 270° West 361 415 24,400 -823 Descending Los Angeles Center
Mon 03:32:47 PM 32.7544 -115.1953 268° West 357 411 23,900 -774 Descending Los Angeles Center
Mon 03:33:49 PM 32.7514 -115.2978 268° West 315 362 22,800 -1,790 Descending Los Angeles Center
Mon 03:34:51 PM 32.7492 -115.4064 269° West 327 376 20,200 -2,226 Descending Los Angeles Center
Mon 03:35:53 PM 32.7458 -115.5331 268° West 321 369 18,200 -1,968 Descending Los Angeles Center
Mon 03:36:56 PM 32.7489 -115.6375 272° West 317 365 16,100 -1,872 Descending Los Angeles Center
Mon 03:37:58 PM 32.7533 -115.7392 273° West 312 359 14,300 -1,742 Descending Los Angeles Center
Mon 03:39:00 PM 32.7542 -115.8378 271° West 303 349 12,500 -1,790 Descending Los Angeles Center
Mon 03:40:02 PM 32.7569 -115.9375 272° West 302 348 10,600 -1,306 Descending Los Angeles Center
Mon 03:41:04 PM 32.7589 -116.0361 271° West 300 345 9,800 -339 Descending Los Angeles Center
Mon 03:42:06 PM 32.7619 -116.1608 272° West 310 357 9,900 48 Climbing Los Angeles Center
Mon 03:43:08 PM 32.7639 -116.2589 271° West 302 348 9,900  Level Los Angeles Center
Mon 03:44:10 PM 32.7550 -116.3553 264° West 292 336 9,900  Level Los Angeles Center
Mon 03:45:25 PM 32.7392 -116.4508 259° West 291 335 9,900 -88 Level Los Angeles Center
Mon 03:46:27 PM 32.7233 -116.5639 261° West 288 331 9,700 -677 Descending Los Angeles Center
Mon 03:47:29 PM 32.7108 -116.6517 260° West 276 318 8,500 -1,113 Descending Los Angeles Center
Mon 03:48:31 PM 32.7053 -116.7442 266° West 278 320 7,400 -1,152 Descending Los Angeles Center
Mon 03:49:34 PM 32.6972 -116.8506 265° West 273 314 6,100 -1,487 Descending Los Angeles Center
Mon 03:50:28 PM 32.6667 -116.9167 241° Southwest 244 281 4,500 -1,167 Descending Southern California TRACON
Mon 03:52:34 PM 32.7000 -117.0500 287° West 176 203 2,600 -967 Descending Southern California TRACON
Mon 03:53:28 PM 32.7167 -117.1000 292° West 161 185 1,600 -942 Descending Southern California TRACON
Mon 03:54:35 PM 32.7167 -117.1500 270° West 129 148 700 -652 Descending Southern California TRACON
Mon 03:55:46 PM 32.7328 -117.1881 297° West 125 144 100 -507 Descending Los Angeles Center
Mon 03:57:00 PM 32.7333 -117.1833 281° West  Level FlightAware Approximate

Login

Don't have an account? Register now (free) for customized features, flight alerts, and more!